Time;durP1;ratioP1;P1;durP2;ratioP2;P2;SDS_P1;SDS_P2;PMS_P1;PMS_P2;Temp;Humidity;BMP_temperature;BMP_pressure;BME280_temperature;BME280_humidity;BME280_pressure;Samples;Min_cycle;Max_cycle;Signal;HPM_P1;HPM_P2
2023/11/19 00:02:11;;;;;;;;;;;17.30;95.60;;;;;;5032804;28;19917;-71
2023/11/19 00:04:39;;;;;;;;;;;17.30;95.80;;;;;;5032831;28;20372;-71
2023/11/19 00:07:06;;;;;;;;;;;17.30;95.80;;;;;;5032920;28;19909;-71
2023/11/19 00:09:36;;;;;;;;;;;17.40;95.90;;;;;;5032657;28;20408;-69
2023/11/19 00:12:02;;;;;;;;;;;17.40;93.60;;;;;;5032827;28;19913;-71
2023/11/19 00:14:29;;;;;;;;;;;17.30;95.40;;;;;;5032984;28;19958;-71
2023/11/19 00:16:54;;;;;;;;;;;17.30;95.80;;;;;;5031511;28;20425;-70
2023/11/19 00:19:20;;;;;;;;;;;17.30;95.80;;;;;;5032639;28;19913;-71
2023/11/19 00:21:45;;;;;;;;;;;17.30;95.80;;;;;;5032841;28;19991;-71
2023/11/19 00:24:12;;;;;;;;;;;17.30;95.70;;;;;;5032672;28;19913;-71
2023/11/19 00:26:38;;;;;;;;;;;17.40;95.70;;;;;;5032834;28;19916;-71
2023/11/19 00:29:03;;;;;;;;;;;17.30;95.70;;;;;;5032616;28;19909;-70
2023/11/19 00:31:29;;;;;;;;;;;17.30;95.70;;;;;;5032593;28;19967;-71
2023/11/19 00:33:54;;;;;;;;;;;17.40;95.70;;;;;;5032366;28;19916;-71
2023/11/19 00:36:20;;;;;;;;;;;17.40;95.70;;;;;;5032516;28;19910;-71
2023/11/19 00:38:46;;;;;;;;;;;17.30;95.60;;;;;;5032564;28;19979;-71
2023/11/19 00:41:11;;;;;;;;;;;17.40;95.70;;;;;;5032273;28;19913;-71
2023/11/19 00:43:37;;;;;;;;;;;17.20;95.50;;;;;;5032327;28;19916;-71
2023/11/19 00:46:03;;;;;;;;;;;17.40;95.70;;;;;;5032054;28;20322;-71
2023/11/19 00:48:28;;;;;;;;;;;17.40;95.40;;;;;;5032140;28;20414;-71
2023/11/19 00:50:54;;;;;;;;;;;17.40;95.70;;;;;;5032231;28;20000;-71
2023/11/19 00:53:19;;;;;;;;;;;17.40;95.70;;;;;;5032129;28;19913;-71
2023/11/19 00:55:45;;;;;;;;;;;17.50;95.60;;;;;;5030800;28;20287;-71
2023/11/19 00:58:10;;;;;;;;;;;17.30;95.60;;;;;;5032083;28;19909;-71
2023/11/19 01:00:36;;;;;;;;;;;17.40;95.70;;;;;;5032055;28;20287;-71
2023/11/19 01:03:01;;;;;;;;;;;17.40;95.50;;;;;;5032024;28;20482;-71
2023/11/19 01:05:28;;;;;;;;;;;17.40;95.80;;;;;;5032044;28;19909;-71
2023/11/19 01:07:53;;;;;;;;;;;17.60;95.70;;;;;;5031926;28;20299;-71
2023/11/19 01:10:20;;;;;;;;;;;17.50;95.80;;;;;;5032061;28;19913;-71
2023/11/19 01:12:46;;;;;;;;;;;17.50;95.70;;;;;;5030689;28;19917;-71
2023/11/19 01:15:11;;;;;;;;;;;17.40;95.80;;;;;;5031991;28;20007;-71
2023/11/19 01:17:37;;;;;;;;;;;17.40;95.70;;;;;;5031947;28;20008;-71
2023/11/19 01:20:05;;;;;;;;;;;17.50;95.80;;;;;;5031950;28;19909;-69
2023/11/19 01:22:31;;;;;;;;;;;17.40;95.30;;;;;;5031913;28;20391;-71
2023/11/19 01:24:58;;;;;;;;;;;17.50;95.70;;;;;;5031941;28;19909;-71
2023/11/19 01:27:23;;;;;;;;;;;17.50;95.60;;;;;;5032017;28;20012;-71
2023/11/19 01:29:49;;;;;;;;;;;17.50;95.70;;;;;;5032007;28;19948;-71
2023/11/19 01:32:15;;;;;;;;;;;17.50;95.80;;;;;;5031908;28;19909;-70
2023/11/19 01:34:41;;;;;;;;;;;17.50;95.60;;;;;;5031678;28;19909;-71
2023/11/19 01:37:06;;;;;;;;;;;17.50;95.70;;;;;;5031878;28;19963;-70
2023/11/19 01:39:32;;;;;;;;;;;17.50;95.70;;;;;;5031827;28;19960;-71
2023/11/19 01:41:57;;;;;;;;;;;17.50;95.70;;;;;;5031728;28;19947;-71
2023/11/19 01:44:23;;;;;;;;;;;17.40;95.40;;;;;;5031744;28;19916;-71
2023/11/19 01:46:49;;;;;;;;;;;17.60;95.60;;;;;;5031771;28;19935;-71
2023/11/19 01:49:14;;;;;;;;;;;17.50;95.60;;;;;;5031683;28;19916;-71
2023/11/19 01:51:40;;;;;;;;;;;17.60;95.50;;;;;;5031577;28;19987;-71
2023/11/19 01:54:07;;;;;;;;;;;17.50;95.70;;;;;;5031970;28;19999;-71
2023/11/19 01:56:33;;;;;;;;;;;17.50;95.60;;;;;;5031674;28;19909;-71
2023/11/19 01:58:59;;;;;;;;;;;17.50;95.60;;;;;;5034323;28;19936;-71
2023/11/19 02:01:24;;;;;;;;;;;17.50;95.30;;;;;;5034986;28;19944;-71
2023/11/19 02:03:51;;;;;;;;;;;17.60;95.50;;;;;;5035250;28;19915;-71
2023/11/19 02:06:16;;;;;;;;;;;17.50;95.40;;;;;;5035211;28;19948;-71
2023/11/19 02:08:43;;;;;;;;;;;17.60;95.40;;;;;;5034861;28;19955;-71
2023/11/19 02:11:08;;;;;;;;;;;17.60;95.40;;;;;;5035298;28;19909;-69
2023/11/19 02:13:37;;;;;;;;;;;17.60;95.40;;;;;;5034860;28;19909;-69
2023/11/19 02:16:03;;;;;;;;;;;17.50;93.50;;;;;;5034899;28;19913;-70
2023/11/19 02:18:29;;;;;;;;;;;17.50;95.20;;;;;;5034804;28;20268;-70
2023/11/19 02:20:55;;;;;;;;;;;17.60;95.20;;;;;;5034618;28;20371;-70
2023/11/19 02:23:21;;;;;;;;;;;17.60;95.30;;;;;;5034908;28;19967;-70
2023/11/19 02:25:50;;;;;;;;;;;17.60;95.10;;;;;;5034626;28;19909;-70
2023/11/19 02:28:16;;;;;;;;;;;17.60;95.20;;;;;;5034647;28;19909;-70
2023/11/19 02:30:41;;;;;;;;;;;17.60;94.80;;;;;;5034778;28;19917;-70
2023/11/19 02:33:08;;;;;;;;;;;17.50;95.10;;;;;;5034824;28;19909;-70
2023/11/19 02:35:34;;;;;;;;;;;17.60;95.10;;;;;;5034536;28;19909;-70
2023/11/19 02:38:00;;;;;;;;;;;17.60;95.10;;;;;;5034420;28;19920;-70
2023/11/19 02:40:26;;;;;;;;;;;17.60;95.10;;;;;;5034762;28;19939;-70
2023/11/19 02:42:52;;;;;;;;;;;17.60;95.00;;;;;;5034550;28;20580;-71
2023/11/19 02:45:18;;;;;;;;;;;17.50;95.20;;;;;;5034415;28;20371;-70
2023/11/19 02:47:44;;;;;;;;;;;17.10;94.90;;;;;;5034552;28;19909;-70
2023/11/19 02:50:16;;;;;;;;;;;17.60;95.00;;;;;;5034484;28;19909;-70
2023/11/19 02:52:43;;;;;;;;;;;17.50;95.10;;;;;;5034431;28;20000;-70
2023/11/19 02:55:15;;;;;;;;;;;17.50;95.00;;;;;;5034179;28;20363;-70
2023/11/19 02:57:48;;;;;;;;;;;17.60;95.00;;;;;;5034201;28;19909;-70
2023/11/19 03:00:17;;;;;;;;;;;17.40;92.40;;;;;;5034042;28;19921;-70
2023/11/19 03:02:48;;;;;;;;;;;17.50;94.70;;;;;;5034265;28;20012;-70
2023/11/19 03:05:14;;;;;;;;;;;17.40;95.00;;;;;;5034422;28;19909;-70
2023/11/19 03:07:43;;;;;;;;;;;17.50;95.10;;;;;;5033786;28;20023;-70
2023/11/19 03:10:13;;;;;;;;;;;17.60;94.90;;;;;;5033385;28;19919;-70
2023/11/19 03:12:42;;;;;;;;;;;17.80;95.10;;;;;;5033612;28;20367;-70
2023/11/19 03:15:11;;;;;;;;;;;17.50;92.60;;;;;;5033628;28;19939;-70
2023/11/19 03:17:41;;;;;;;;;;;17.50;94.80;;;;;;5033916;28;19996;-70
2023/11/19 03:20:09;;;;;;;;;;;17.50;92.50;;;;;;5034141;28;20000;-70
2023/11/19 03:22:38;;;;;;;;;;;17.50;94.40;;;;;;5033468;28;19924;-70
2023/11/19 03:25:04;;;;;;;;;;;17.50;92.50;;;;;;5033616;28;19953;-70
2023/11/19 03:27:32;;;;;;;;;;;17.40;94.50;;;;;;5033237;28;20217;-70
2023/11/19 03:29:58;;;;;;;;;;;17.50;94.70;;;;;;5033855;28;20489;-69
2023/11/19 03:32:24;;;;;;;;;;;17.50;94.80;;;;;;5033787;28;19931;-70
2023/11/19 03:34:49;;;;;;;;;;;17.50;94.80;;;;;;5033460;28;20386;-70
2023/11/19 03:37:17;;;;;;;;;;;17.50;94.80;;;;;;5033277;28;20012;-71
2023/11/19 03:39:43;;;;;;;;;;;17.50;94.60;;;;;;5033318;28;19913;-71
2023/11/19 03:42:09;;;;;;;;;;;17.50;94.70;;;;;;5033479;28;19944;-71
2023/11/19 03:44:35;;;;;;;;;;;17.50;94.70;;;;;;5033159;28;20360;-71
2023/11/19 03:47:01;;;;;;;;;;;17.50;94.60;;;;;;5033099;28;19909;-71
2023/11/19 03:49:27;;;;;;;;;;;17.40;94.60;;;;;;5033332;28;19970;-70
2023/11/19 03:51:53;;;;;;;;;;;17.50;94.60;;;;;;5033386;28;19963;-71
2023/11/19 03:54:20;;;;;;;;;;;17.50;94.70;;;;;;5033221;28;20236;-70
2023/11/19 03:56:46;;;;;;;;;;;17.40;94.60;;;;;;5033290;28;19909;-71
2023/11/19 03:59:12;;;;;;;;;;;17.50;94.70;;;;;;5032914;28;19958;-69
2023/11/19 04:01:37;;;;;;;;;;;17.40;94.40;;;;;;5032903;28;19917;-72
2023/11/19 04:04:03;;;;;;;;;;;17.50;94.70;;;;;;5033008;28;19909;-72
2023/11/19 04:06:29;;;;;;;;;;;17.50;94.30;;;;;;5033178;28;19989;-72
2023/11/19 04:08:55;;;;;;;;;;;17.40;94.40;;;;;;5032654;28;19948;-72
2023/11/19 04:11:21;;;;;;;;;;;17.70;94.50;;;;;;5033100;28;20008;-71
2023/11/19 04:13:47;;;;;;;;;;;17.50;94.60;;;;;;5032555;28;19909;-71
2023/11/19 04:16:12;;;;;;;;;;;17.40;94.50;;;;;;5032507;28;20000;-71
2023/11/19 04:18:38;;;;;;;;;;;17.50;94.50;;;;;;5032561;28;20003;-71
2023/11/19 04:21:06;;;;;;;;;;;17.40;94.50;;;;;;5031554;28;19908;-71
2023/11/19 04:23:31;;;;;;;;;;;17.50;94.00;;;;;;5032673;28;20271;-71
2023/11/19 04:25:56;;;;;;;;;;;17.50;94.40;;;;;;5032439;28;19909;-71
2023/11/19 04:28:22;;;;;;;;;;;17.40;94.50;;;;;;5032400;28;20068;-71
2023/11/19 04:30:47;;;;;;;;;;;17.30;94.40;;;;;;5032387;28;19909;-71
2023/11/19 04:33:14;;;;;;;;;;;17.40;94.40;;;;;;5032327;28;19910;-71
2023/11/19 04:35:40;;;;;;;;;;;17.40;94.40;;;;;;5032623;28;19909;-71
2023/11/19 04:38:06;;;;;;;;;;;17.40;94.40;;;;;;5032662;28;20382;-71
2023/11/19 04:40:33;;;;;;;;;;;17.30;94.30;;;;;;5032576;28;20274;-71
2023/11/19 04:43:18;;;;;;;;;;;17.30;94.30;;;;;;5032138;28;20517;-71
2023/11/19 04:46:04;;;;;;;;;;;17.10;94.20;;;;;;5032291;28;19913;-71
2023/11/19 04:48:49;;;;;;;;;;;17.40;94.30;;;;;;5032137;28;20326;-71
2023/11/19 04:51:38;;;;;;;;;;;17.30;94.10;;;;;;5032146;28;19956;-71
2023/11/19 04:54:24;;;;;;;;;;;17.30;94.40;;;;;;5032176;28;19941;-71
2023/11/19 04:57:12;;;;;;;;;;;17.30;94.20;;;;;;5032137;28;19913;-71
2023/11/19 04:59:38;;;;;;;;;;;17.30;91.80;;;;;;5032116;28;20384;-71
2023/11/19 05:02:03;;;;;;;;;;;17.30;94.20;;;;;;5032103;28;19921;-71
2023/11/19 05:04:29;;;;;;;;;;;17.30;94.20;;;;;;5030973;28;19956;-71
2023/11/19 05:06:55;;;;;;;;;;;17.30;94.50;;;;;;5032161;28;19909;-71
2023/11/19 05:09:20;;;;;;;;;;;17.30;94.40;;;;;;5031752;28;19921;-71
2023/11/19 05:11:46;;;;;;;;;;;17.40;94.60;;;;;;5032056;28;19969;-71
2023/11/19 05:14:11;;;;;;;;;;;17.30;94.40;;;;;;5032025;28;20399;-71
2023/11/19 05:16:39;;;;;;;;;;;17.30;94.50;;;;;;5032014;28;20378;-71
2023/11/19 05:19:04;;;;;;;;;;;17.30;94.40;;;;;;5032297;28;19910;-71
2023/11/19 05:21:30;;;;;;;;;;;17.40;94.40;;;;;;5031830;28;19967;-71
2023/11/19 05:23:56;;;;;;;;;;;17.30;94.40;;;;;;5031989;28;19909;-71
2023/11/19 05:26:23;;;;;;;;;;;17.20;94.30;;;;;;5032194;28;19909;-71
2023/11/19 05:28:49;;;;;;;;;;;17.30;94.50;;;;;;5031833;28;19916;-71
2023/11/19 05:31:16;;;;;;;;;;;17.30;94.50;;;;;;5032293;28;20244;-71
2023/11/19 05:33:42;;;;;;;;;;;17.40;94.50;;;;;;5034723;28;19928;-71
2023/11/19 05:36:08;;;;;;;;;;;17.30;94.40;;;;;;5036053;28;20265;-71
2023/11/19 05:38:35;;;;;;;;;;;17.40;93.90;;;;;;5035578;28;19916;-71
2023/11/19 05:41:01;;;;;;;;;;;17.50;94.40;;;;;;5035483;28;19955;-71
2023/11/19 05:43:27;;;;;;;;;;;17.30;94.30;;;;;;5035702;28;19913;-71
2023/11/19 05:45:52;;;;;;;;;;;17.30;94.30;;;;;;5035650;28;19963;-71
2023/11/19 05:48:18;;;;;;;;;;;17.40;94.20;;;;;;5035411;28;19909;-71
2023/11/19 05:50:44;;;;;;;;;;;17.30;94.30;;;;;;5035420;28;20012;-71
2023/11/19 05:53:10;;;;;;;;;;;17.30;94.20;;;;;;5035433;28;20028;-71
2023/11/19 05:55:48;;;;;;;;;;;17.30;94.30;;;;;;5035447;28;20391;-71
2023/11/19 05:58:14;;;;;;;;;;;17.20;91.90;;;;;;5035734;28;20367;-71
2023/11/19 06:00:42;;;;;;;;;;;17.30;94.30;;;;;;5035289;28;19920;-71
2023/11/19 06:03:08;;;;;;;;;;;17.20;94.10;;;;;;5035211;28;20494;-71
2023/11/19 06:05:33;;;;;;;;;;;17.30;94.10;;;;;;5035466;28;19909;-71
2023/11/19 06:07:59;;;;;;;;;;;17.40;94.30;;;;;;5034876;28;19925;-71
2023/11/19 06:10:30;;;;;;;;;;;17.30;94.30;;;;;;5035039;28;19913;-71
2023/11/19 06:12:59;;;;;;;;;;;17.30;94.20;;;;;;5035285;28;20000;-71
2023/11/19 06:15:25;;;;;;;;;;;17.30;94.30;;;;;;5034992;28;19916;-71
2023/11/19 06:17:51;;;;;;;;;;;17.20;94.20;;;;;;5035202;28;19932;-71
2023/11/19 06:20:17;;;;;;;;;;;17.40;94.40;;;;;;5034846;28;20411;-71
2023/11/19 06:22:45;;;;;;;;;;;17.30;94.20;;;;;;5034725;28;19917;-71
2023/11/19 06:25:11;;;;;;;;;;;17.20;94.20;;;;;;5034691;28;20011;-71
2023/11/19 06:27:36;;;;;;;;;;;17.20;94.00;;;;;;5034767;28;20008;-71
2023/11/19 06:30:02;;;;;;;;;;;17.20;94.20;;;;;;5034619;28;19909;-71
2023/11/19 06:32:28;;;;;;;;;;;17.20;93.90;;;;;;5034979;28;20000;-71
2023/11/19 06:34:54;;;;;;;;;;;17.20;94.10;;;;;;5034709;28;19909;-71
2023/11/19 06:37:19;;;;;;;;;;;17.20;94.10;;;;;;5034576;28;19947;-71
2023/11/19 06:39:46;;;;;;;;;;;;;;;;;;5034423;28;19910;-71
2023/11/19 06:42:12;;;;;;;;;;;17.20;93.30;;;;;;5034314;28;19921;-71
2023/11/19 06:44:37;;;;;;;;;;;17.20;94.20;;;;;;5033387;28;19991;-71
2023/11/19 06:47:03;;;;;;;;;;;17.20;94.10;;;;;;5034320;28;19996;-71
2023/11/19 06:49:28;;;;;;;;;;;17.20;94.10;;;;;;5034288;28;19909;-71
2023/11/19 06:51:54;;;;;;;;;;;17.30;94.10;;;;;;5034267;28;19963;-71
2023/11/19 06:54:19;;;;;;;;;;;17.20;94.20;;;;;;5034304;28;19920;-71
2023/11/19 06:56:45;;;;;;;;;;;17.30;93.80;;;;;;5034124;28;19915;-71
2023/11/19 06:59:10;;;;;;;;;;;17.20;94.00;;;;;;5034178;28;19996;-71
2023/11/19 07:01:36;;;;;;;;;;;17.20;93.80;;;;;;5034190;28;20352;-71
2023/11/19 07:04:08;;;;;;;;;;;17.30;93.90;;;;;;5034136;28;19909;-70
2023/11/19 07:06:33;;;;;;;;;;;17.20;93.90;;;;;;5040682;28;19971;-71
2023/11/19 07:08:59;;;;;;;;;;;17.30;93.90;;;;;;5032302;28;19925;-71
2023/11/19 07:11:24;;;;;;;;;;;17.20;94.00;;;;;;5033838;28;19916;-71
2023/11/19 07:13:50;;;;;;;;;;;17.30;93.90;;;;;;5033888;28;19963;-71
2023/11/19 07:16:15;;;;;;;;;;;17.60;94.10;;;;;;5033911;28;19916;-71
2023/11/19 07:18:43;;;;;;;;;;;17.20;93.90;;;;;;5034189;28;19909;-71
2023/11/19 07:21:10;;;;;;;;;;;17.20;93.90;;;;;;5033699;28;20294;-71
2023/11/19 07:23:35;;;;;;;;;;;17.30;93.80;;;;;;5033906;28;20437;-71
2023/11/19 07:26:01;;;;;;;;;;;17.30;94.00;;;;;;5033741;28;19917;-71
2023/11/19 07:28:28;;;;;;;;;;;17.30;93.90;;;;;;5033717;28;20378;-71
2023/11/19 07:30:56;;;;;;;;;;;17.20;93.90;;;;;;5033704;28;20280;-71
2023/11/19 07:33:21;;;;;;;;;;;17.20;93.70;;;;;;5033638;28;20385;-71
2023/11/19 07:35:46;;;;;;;;;;;17.30;94.00;;;;;;5033551;28;19992;-71
2023/11/19 07:38:12;;;;;;;;;;;17.20;93.90;;;;;;5033490;28;19917;-71
2023/11/19 07:40:38;;;;;;;;;;;17.30;93.90;;;;;;5033810;28;19909;-71
2023/11/19 07:43:03;;;;;;;;;;;17.00;93.80;;;;;;5033555;28;19999;-71
2023/11/19 07:45:29;;;;;;;;;;;17.20;93.90;;;;;;5033406;28;19932;-71
2023/11/19 07:47:54;;;;;;;;;;;17.20;93.90;;;;;;5033301;28;19909;-71
2023/11/19 07:50:20;;;;;;;;;;;17.20;94.00;;;;;;5033212;28;20375;-71
2023/11/19 07:52:45;;;;;;;;;;;17.20;94.00;;;;;;5033231;28;19963;-71
2023/11/19 07:55:11;;;;;;;;;;;17.30;94.00;;;;;;5033404;28;19921;-71
2023/11/19 07:57:37;;;;;;;;;;;17.20;93.90;;;;;;5033182;28;19913;-71
2023/11/19 08:00:03;;;;;;;;;;;17.20;93.80;;;;;;5033018;28;20276;-71
2023/11/19 08:02:29;;;;;;;;;;;17.20;93.70;;;;;;5032838;28;19917;-72
2023/11/19 08:04:55;;;;;;;;;;;17.20;93.80;;;;;;5032999;28;19916;-72
2023/11/19 08:07:20;;;;;;;;;;;17.30;93.90;;;;;;5032822;28;19979;-74
2023/11/19 08:09:46;;;;;;;;;;;17.20;93.80;;;;;;5032987;28;20368;-71
2023/11/19 08:12:13;;;;;;;;;;;17.30;93.90;;;;;;5032896;28;19992;-74
2023/11/19 08:14:39;;;;;;;;;;;17.20;93.70;;;;;;5032922;28;19963;-73
2023/11/19 08:17:05;;;;;;;;;;;17.20;93.80;;;;;;5033024;28;20279;-74
2023/11/19 08:19:30;;;;;;;;;;;17.30;93.80;;;;;;5032891;28;20398;-73
2023/11/19 08:21:56;;;;;;;;;;;17.20;93.80;;;;;;5032641;28;19923;-73
2023/11/19 08:24:21;;;;;;;;;;;17.30;93.80;;;;;;5032781;28;19916;-73
2023/11/19 08:26:47;;;;;;;;;;;17.30;93.90;;;;;;5031503;28;20398;-74
2023/11/19 08:29:13;;;;;;;;;;;17.50;93.80;;;;;;5032705;28;19909;-74
2023/11/19 08:31:39;;;;;;;;;;;17.30;93.70;;;;;;5032710;28;19909;-71
2023/11/19 08:34:08;;;;;;;;;;;17.30;93.60;;;;;;5032833;28;20420;-70
2023/11/19 08:36:34;;;;;;;;;;;17.30;93.70;;;;;;5032597;28;19910;-70
2023/11/19 08:38:59;;;;;;;;;;;17.20;93.80;;;;;;5032601;28;19920;-70
2023/11/19 08:41:25;;;;;;;;;;;17.30;93.80;;;;;;5032445;28;20291;-70
2023/11/19 08:43:51;;;;;;;;;;;17.30;93.80;;;;;;5032788;28;20351;-70
2023/11/19 08:46:17;;;;;;;;;;;17.30;93.70;;;;;;5032440;28;19910;-70
2023/11/19 08:48:42;;;;;;;;;;;17.20;93.70;;;;;;5032437;28;19916;-69
2023/11/19 08:51:08;;;;;;;;;;;17.20;93.90;;;;;;5032616;28;19909;-69
2023/11/19 08:53:35;;;;;;;;;;;17.30;93.80;;;;;;5032436;28;19963;-70
2023/11/19 08:56:02;;;;;;;;;;;17.20;93.90;;;;;;5032710;28;20316;-70
2023/11/19 08:58:28;;;;;;;;;;;17.20;93.90;;;;;;5032673;28;19916;-69
2023/11/19 09:00:54;;;;;;;;;;;17.30;94.00;;;;;;5032630;28;19909;-70
2023/11/19 09:03:20;;;;;;;;;;;17.20;93.90;;;;;;5032390;28;20379;-70
2023/11/19 09:05:46;;;;;;;;;;;17.30;94.00;;;;;;5032561;28;20406;-70
2023/11/19 09:08:12;;;;;;;;;;;17.30;94.00;;;;;;5033997;28;20352;-69
2023/11/19 09:10:38;;;;;;;;;;;17.40;94.00;;;;;;5036624;28;19909;-70
2023/11/19 09:13:04;;;;;;;;;;;17.30;94.00;;;;;;5036453;28;20287;-70
2023/11/19 09:15:30;;;;;;;;;;;17.40;94.00;;;;;;5036136;28;19913;-70
2023/11/19 09:17:56;;;;;;;;;;;17.40;93.90;;;;;;5036411;28;19909;-70
2023/11/19 09:20:22;;;;;;;;;;;17.40;94.00;;;;;;5036320;28;20071;-69
2023/11/19 09:22:48;;;;;;;;;;;17.30;93.90;;;;;;5036249;28;19917;-70
2023/11/19 09:25:17;;;;;;;;;;;17.40;94.00;;;;;;5036292;28;20367;-69
2023/11/19 09:27:43;;;;;;;;;;;17.40;92.10;;;;;;5035892;28;19916;-70
2023/11/19 09:30:09;;;;;;;;;;;17.30;94.40;;;;;;5036222;28;19913;-70
2023/11/19 09:32:37;;;;;;;;;;;17.40;93.40;;;;;;5035836;28;20360;-70
2023/11/19 09:35:03;;;;;;;;;;;17.40;94.10;;;;;;5036175;28;19909;-69
2023/11/19 09:37:29;;;;;;;;;;;17.40;93.40;;;;;;5036110;28;19913;-70
2023/11/19 09:39:56;;;;;;;;;;;17.40;94.10;;;;;;5036085;28;20256;-70
2023/11/19 09:42:23;;;;;;;;;;;17.40;93.80;;;;;;5035725;28;19917;-69
2023/11/19 09:44:49;;;;;;;;;;;17.50;94.10;;;;;;5035727;28;19963;-70
2023/11/19 09:47:16;;;;;;;;;;;17.50;93.90;;;;;;5035590;28;19909;-69
2023/11/19 09:49:41;;;;;;;;;;;17.60;94.10;;;;;;5035639;28;19909;-70
2023/11/19 09:52:07;;;;;;;;;;;17.50;94.10;;;;;;5034334;28;19916;-70
2023/11/19 09:54:33;;;;;;;;;;;17.50;93.90;;;;;;5035435;28;19916;-69
2023/11/19 09:57:02;;;;;;;;;;;17.60;94.00;;;;;;5035506;28;19952;-70
2023/11/19 09:59:29;;;;;;;;;;;17.50;93.70;;;;;;5035238;28;19913;-70
2023/11/19 10:01:56;;;;;;;;;;;17.60;93.90;;;;;;5035076;28;19959;-70
2023/11/19 10:04:22;;;;;;;;;;;17.60;94.00;;;;;;5035305;28;19956;-70
2023/11/19 10:06:49;;;;;;;;;;;17.70;94.10;;;;;;5035279;28;19955;-70
2023/11/19 10:09:15;;;;;;;;;;;17.70;94.00;;;;;;5035169;28;20334;-70
2023/11/19 10:11:40;;;;;;;;;;;17.80;93.80;;;;;;5035179;28;19913;-70
2023/11/19 10:14:06;;;;;;;;;;;17.80;93.80;;;;;;5035214;28;20390;-70
2023/11/19 10:16:34;;;;;;;;;;;17.60;93.70;;;;;;5035326;28;19909;-75
2023/11/19 10:18:59;;;;;;;;;;;18.00;93.30;;;;;;5037227;28;19913;-70
2023/11/19 10:21:25;;;;;;;;;;;17.90;93.30;;;;;;5035760;28;19984;-71
2023/11/19 10:23:56;;;;;;;;;;;18.00;93.50;;;;;;5035209;28;19910;-71
2023/11/19 10:26:22;;;;;;;;;;;18.00;91.30;;;;;;5035022;28;19916;-70
2023/11/19 10:28:48;;;;;;;;;;;18.00;93.60;;;;;;5034920;28;19909;-70
2023/11/19 10:31:15;;;;;;;;;;;18.40;93.70;;;;;;5034817;28;19919;-70
2023/11/19 10:33:40;;;;;;;;;;;18.20;93.70;;;;;;5034750;28;19951;-70
2023/11/19 10:36:07;;;;;;;;;;;18.20;93.40;;;;;;5034661;28;19958;-70
2023/11/19 10:38:33;;;;;;;;;;;18.30;93.00;;;;;;5034830;28;19913;-71
2023/11/19 10:40:59;;;;;;;;;;;18.20;93.30;;;;;;5034915;28;20291;-71
2023/11/19 10:43:25;;;;;;;;;;;18.40;93.40;;;;;;5034545;28;19917;-70
2023/11/19 10:45:51;;;;;;;;;;;18.30;93.50;;;;;;5034632;28;20349;-70
2023/11/19 10:48:17;;;;;;;;;;;18.40;93.60;;;;;;5034513;28;19909;-71
2023/11/19 10:50:44;;;;;;;;;;;18.30;93.50;;;;;;5034722;28;19909;-70
2023/11/19 10:53:12;;;;;;;;;;;18.30;93.60;;;;;;5034720;28;19921;-70
2023/11/19 10:55:39;;;;;;;;;;;18.30;93.60;;;;;;5034690;28;19913;-70
2023/11/19 10:58:06;;;;;;;;;;;18.40;93.50;;;;;;5034664;28;19988;-70
2023/11/19 11:00:57;;;;;;;;;;;18.30;93.60;;;;;;5034401;28;20351;-71
2023/11/19 11:03:29;;;;;;;;;;;18.30;93.50;;;;;;5030113;28;19922;-70
2023/11/19 11:05:56;;;;;;;;;;;18.30;91.30;;;;;;5034445;28;20000;-71
2023/11/19 11:08:21;;;;;;;;;;;18.20;93.80;;;;;;5034065;28;19928;-71
2023/11/19 11:10:57;;;;;;;;;;;18.20;93.70;;;;;;5034033;28;20003;-70
2023/11/19 11:13:27;;;;;;;;;;;18.30;91.50;;;;;;5034166;28;19909;-70
2023/11/19 11:15:54;;;;;;;;;;;18.30;93.90;;;;;;5034257;28;19909;-70
2023/11/19 11:18:20;;;;;;;;;;;18.30;93.60;;;;;;5034223;28;19913;-70
2023/11/19 11:20:45;;;;;;;;;;;18.40;93.70;;;;;;5033868;28;20352;-70
2023/11/19 11:23:24;;;;;;;;;;;18.40;93.50;;;;;;5033829;28;19970;-70
2023/11/19 11:25:58;;;;;;;;;;;18.50;91.20;;;;;;5033765;28;19913;-70
2023/11/19 11:28:23;;;;;;;;;;;18.60;91.00;;;;;;5033755;28;19909;-71
2023/11/19 11:30:59;;;;;;;;;;;18.60;93.30;;;;;;5033488;28;20016;-71
2023/11/19 11:33:45;;;;;;;;;;;18.70;90.80;;;;;;5033984;28;20283;-70
2023/11/19 11:36:12;;;;;;;;;;;18.80;93.10;;;;;;4993028;28;19913;-71
2023/11/19 11:38:41;;;;;;;;;;;18.90;92.90;;;;;;5033519;28;19956;-71
2023/11/19 11:41:19;;;;;;;;;;;18.80;92.80;;;;;;5033426;28;19910;-71
2023/11/19 11:43:50;;;;;;;;;;;18.90;90.50;;;;;;5033738;28;19919;-70
2023/11/19 11:46:37;;;;;;;;;;;18.90;92.90;;;;;;5033727;28;20011;-71
2023/11/19 11:49:04;;;;;;;;;;;19.00;90.30;;;;;;5033312;28;19909;-72
2023/11/19 11:51:44;;;;;;;;;;;19.00;92.70;;;;;;5033288;28;19913;-71
2023/11/19 11:54:11;;;;;;;;;;;19.10;90.30;;;;;;5033135;28;19909;-70
2023/11/19 11:56:38;;;;;;;;;;;19.20;92.80;;;;;;5033458;28;19909;-70
2023/11/19 11:59:19;;;;;;;;;;;19.20;92.40;;;;;;5033018;28;19916;-70
2023/11/19 12:01:57;;;;;;;;;;;19.20;92.30;;;;;;5032790;28;20390;-71
2023/11/19 12:04:26;;;;;;;;;;;19.30;90.20;;;;;;5032919;28;19917;-70
2023/11/19 12:07:12;;;;;;;;;;;19.20;92.50;;;;;;5033107;28;19953;-71
2023/11/19 12:09:41;;;;;;;;;;;19.40;92.60;;;;;;5032443;28;20335;-74
2023/11/19 12:12:13;;;;;;;;;;;19.50;90.10;;;;;;5033116;28;19993;-74
2023/11/19 12:15:04;;;;;;;;;;;19.40;89.90;;;;;;5032797;28;20008;-73
2023/11/19 12:17:33;;;;;;;;;;;19.40;89.80;;;;;;5023633;28;19923;-73
2023/11/19 12:19:59;;;;;;;;;;;19.50;89.90;;;;;;5033078;28;20237;-75
2023/11/19 12:22:25;;;;;;;;;;;19.60;92.30;;;;;;5032646;28;19948;-74
2023/11/19 12:24:51;;;;;;;;;;;;;;;;;;5032695;28;19988;-79
2023/11/19 12:27:17;;;;;;;;;;;19.60;89.10;;;;;;5032672;28;19916;-73
2023/11/19 12:29:44;;;;;;;;;;;19.40;92.20;;;;;;5032557;28;19909;-73
2023/11/19 12:32:09;;;;;;;;;;;19.40;92.20;;;;;;5032611;28;19913;-72
2023/11/19 12:34:35;;;;;;;;;;;19.40;92.40;;;;;;5032875;28;19909;-73
2023/11/19 12:37:03;;;;;;;;;;;19.30;92.50;;;;;;5032582;28;20004;-72
2023/11/19 12:39:29;;;;;;;;;;;19.30;92.60;;;;;;5032633;28;20327;-70
2023/11/19 12:41:55;;;;;;;;;;;19.30;92.80;;;;;;5031862;28;19979;-71
2023/11/19 12:44:21;;;;;;;;;;;19.10;92.80;;;;;;5032512;28;19917;-71
2023/11/19 12:46:59;;;;;;;;;;;19.10;93.00;;;;;;5032708;28;19913;-71
2023/11/19 12:49:24;;;;;;;;;;;19.00;92.70;;;;;;5032980;28;20279;-71
2023/11/19 12:51:50;;;;;;;;;;;19.20;92.80;;;;;;5047709;28;19924;-70
2023/11/19 12:54:16;;;;;;;;;;;19.10;92.90;;;;;;5032544;28;19909;-70
2023/11/19 12:56:51;;;;;;;;;;;19.10;92.90;;;;;;5032327;28;19909;-71
2023/11/19 12:59:17;;;;;;;;;;;19.10;93.00;;;;;;5032193;28;19954;-70
2023/11/19 13:01:53;;;;;;;;;;;19.00;92.70;;;;;;5032166;28;20000;-71
2023/11/19 13:04:19;;;;;;;;;;;19.10;93.10;;;;;;5032817;28;19909;-71
2023/11/19 13:06:47;;;;;;;;;;;19.00;92.90;;;;;;5032166;28;20032;-70
2023/11/19 13:09:25;;;;;;;;;;;19.10;90.70;;;;;;5032024;28;20295;-71
2023/11/19 13:11:52;;;;;;;;;;;19.10;90.70;;;;;;5032493;28;19909;-70
2023/11/19 13:14:18;;;;;;;;;;;19.00;93.10;;;;;;5032184;28;19917;-70
2023/11/19 13:16:45;;;;;;;;;;;19.00;93.00;;;;;;5032408;28;19909;-70
2023/11/19 13:19:11;;;;;;;;;;;19.00;93.00;;;;;;5032097;28;19932;-70
2023/11/19 13:21:37;;;;;;;;;;;19.10;93.00;;;;;;5032255;28;20360;-70
2023/11/19 13:24:03;;;;;;;;;;;19.20;92.90;;;;;;5032319;28;19914;-70
2023/11/19 13:26:29;;;;;;;;;;;19.10;92.70;;;;;;5031967;28;19944;-70
2023/11/19 13:28:54;;;;;;;;;;;19.10;92.90;;;;;;5032060;28;19909;-70
2023/11/19 13:31:20;;;;;;;;;;;19.00;93.10;;;;;;5031994;28;19913;-70
2023/11/19 13:33:45;;;;;;;;;;;19.10;92.90;;;;;;5032005;28;19917;-70
2023/11/19 13:36:11;;;;;;;;;;;19.10;92.90;;;;;;5031894;28;20388;-70
2023/11/19 13:38:36;;;;;;;;;;;19.20;92.80;;;;;;5031900;28;19916;-70
2023/11/19 13:41:05;;;;;;;;;;;19.10;92.80;;;;;;5032007;28;19937;-70
2023/11/19 13:43:31;;;;;;;;;;;19.00;90.60;;;;;;5031708;28;20375;-70
2023/11/19 13:45:58;;;;;;;;;;;19.00;93.00;;;;;;5031676;28;19967;-70
2023/11/19 13:48:23;;;;;;;;;;;19.00;92.80;;;;;;5031597;28;19917;-70
2023/11/19 13:50:49;;;;;;;;;;;19.00;93.10;;;;;;5031662;28;20327;-70
2023/11/19 13:53:15;;;;;;;;;;;19.00;93.00;;;;;;5031841;28;19979;-70
2023/11/19 13:55:42;;;;;;;;;;;18.90;92.70;;;;;;5035238;28;19909;-70
2023/11/19 13:58:07;;;;;;;;;;;19.00;93.10;;;;;;5035230;28;19952;-70
2023/11/19 14:00:33;;;;;;;;;;;18.90;92.80;;;;;;5035143;28;19909;-70
2023/11/19 14:02:59;;;;;;;;;;;18.90;92.60;;;;;;5035248;28;19917;-70
2023/11/19 14:05:25;;;;;;;;;;;18.90;92.90;;;;;;5035344;28;20283;-70
2023/11/19 14:07:51;;;;;;;;;;;19.00;93.00;;;;;;5035017;28;19928;-70
2023/11/19 14:10:17;;;;;;;;;;;18.90;92.80;;;;;;5035041;28;20430;-70
2023/11/19 14:12:43;;;;;;;;;;;18.80;92.90;;;;;;5035192;28;19915;-70
2023/11/19 14:15:09;;;;;;;;;;;18.90;92.70;;;;;;5034800;28;19909;-70
2023/11/19 14:17:35;;;;;;;;;;;18.80;92.70;;;;;;5034843;28;19913;-70
2023/11/19 14:20:01;;;;;;;;;;;18.80;93.00;;;;;;5035081;28;20221;-70